Flight Track Log - Related Links

Times and Time Zones

All times are in EDT time to prevent confusion due to time zone crossing. See the UAL4093 flight status page for this flight to view local times or setup timezone preferences in your user account.

Time Position Orientation Groundspeed Altitude Reporting Facility
EDT Latitude Longitude Course Direction KTS MPH feet Rate Location/Type
Mon 10:54:20 PM 40.7333 -74.1167 37° Northeast 192 221 2,800  Level New York TRACON
Mon 10:55:20 PM 40.7833 -74.0667 37° Northeast 228 262 4,800 1,150 Climbing New York TRACON
Mon 10:56:20 PM 40.8333 -74.0167 37° Northeast 250 288 5,100 1,444 Climbing New York TRACON
Mon 10:58:27 PM 40.9222 -73.8519 54° Northeast 275 316 9,300 1,925 Climbing Boston Center
Mon 10:59:27 PM 40.9672 -73.7650 56° Northeast 280 322 11,100 1,600 Climbing Boston Center
Mon 11:00:27 PM 41.0200 -73.6864 48° Northeast 294 338 12,500 1,550 Climbing Boston Center
Mon 11:01:27 PM 41.0878 -73.5858 48° Northeast 317 365 14,200 1,727 Climbing Boston Center
Mon 11:02:39 PM 41.1661 -73.4686 48° Northeast 335 386 16,300 1,591 Climbing Boston Center
Mon 11:03:39 PM 41.2275 -73.3675 51° Northeast 342 394 17,700 1,250 Climbing Boston Center
Mon 11:04:39 PM 41.2783 -73.2658 56° Northeast 353 406 18,800 1,400 Climbing Boston Center
Mon 11:05:39 PM 41.3353 -73.1561 55° Northeast 358 412 20,500 1,500 Climbing Boston Center
Mon 11:06:39 PM 41.3942 -73.0433 55° Northeast 358 412 21,800 750 Climbing Boston Center
Mon 11:07:39 PM 41.4553 -72.9219 56° Northeast 373 429 22,000 1,100 Climbing Boston Center
Mon 11:08:39 PM 41.5183 -72.7950 56° Northeast 396 456 24,000 1,500 Climbing Boston Center
Mon 11:09:39 PM 41.5853 -72.6622 56° Northeast 396 456 25,000 500 Climbing Boston Center
Mon 11:10:39 PM 41.6500 -72.5233 58° Northeast 404 465 25,000  Level Boston Center
Mon 11:11:39 PM 41.7189 -72.3761 58° Northeast 434 499 25,000  Level Boston Center
Mon 11:12:39 PM 41.8083 -72.2619 44° Northeast 468 539 25,000  Level Boston Center
Mon 11:13:39 PM 41.9144 -72.1500 38° Northeast 474 545 25,000  Level Boston Center
Mon 11:14:39 PM 42.0203 -72.0378 38° Northeast 479 551 25,000  Level Boston Center
Mon 11:15:39 PM 42.1303 -71.9194 39° Northeast 486 559 25,000  Level Boston Center
Mon 11:16:39 PM 42.2044 -71.7647 57° Northeast 486 559 25,000  Level Boston Center
Mon 11:17:39 PM 42.2681 -71.5983 63° Northeast 486 559 25,000  Level Boston Center
Mon 11:18:39 PM 42.3333 -71.4375 61° Northeast 486 559 25,000  Level Boston Center
Mon 11:19:39 PM 42.3964 -71.2650 64° Northeast 491 565 25,000  Level Boston Center
Mon 11:20:39 PM 42.4572 -71.1006 63° Northeast 491 565 25,000  Level Boston Center
Mon 11:21:39 PM 42.5136 -70.9417 64° Northeast 486 559 25,000  Level Boston Center
Mon 11:22:39 PM 42.5694 -70.7767 65° Northeast 475 547 25,000  Level Boston Center
Mon 11:23:39 PM 42.6317 -70.6142 62° Northeast 475 547 25,000  Level Boston Center
Mon 11:24:39 PM 42.6853 -70.4544 65° Northeast 465 535 25,000  Level Boston Center
Mon 11:25:39 PM 42.7428 -70.2914 64° Northeast 465 535 25,000  Level Boston Center
Mon 11:26:39 PM 42.8042 -70.1281 63° Northeast 470 541 25,000  Level Boston Center
Mon 11:27:39 PM 42.8611 -69.9644 65° Northeast 470 541 25,000  Level Boston Center
Mon 11:28:39 PM 42.9181 -69.8006 65° Northeast 470 541 25,000  Level Boston Center
Mon 11:29:39 PM 42.9764 -69.6333 64° Northeast 470 541 25,000  Level Boston Center
Mon 11:30:39 PM 43.0347 -69.4658 64° Northeast 475 547 25,000  Level Boston Center
Mon 11:31:39 PM 43.0928 -69.2925 65° Northeast 481 554 25,000  Level Boston Center
Mon 11:32:39 PM 43.1506 -69.1272 64° Northeast 481 554 25,000  Level Boston Center
Mon 11:33:13 PM 43.1667 -69.0167 79° East 500 575 25,000  Level Moncton Center
Mon 11:34:13 PM 43.2333 -68.8667 59° Northeast 500 575 25,000  Level Moncton Center
Mon 11:34:39 PM 43.2711 -68.7783 60° Northeast 486 559 25,000  Level Boston Center
Mon 11:35:39 PM 43.3281 -68.6036 66° East 491 565 25,000  Level Boston Center
Mon 11:36:39 PM 43.3886 -68.4253 65° Northeast 496 571 25,000  Level Boston Center
Mon 11:37:39 PM 43.4525 -68.2294 66° East 501 577 25,000  Level Boston Center
Mon 11:38:39 PM 43.5125 -68.0533 65° Northeast 501 577 25,000  Level Boston Center
Mon 11:39:39 PM 43.5681 -67.8744 67° East 501 577 25,000  Level Boston Center
Mon 11:40:39 PM 43.6272 -67.6919 66° East 506 582 25,000  Level Boston Center
Mon 11:41:39 PM 43.6864 -67.5122 65° Northeast 506 582 25,000  Level Boston Center
Mon 11:42:39 PM 43.7433 -67.3319 66° East 511 588 25,000  Level Boston Center
Mon 11:43:39 PM 43.8019 -67.1544 65° Northeast 506 582 25,000  Level Boston Center
Mon 11:44:13 PM 43.8167 -67.0333 80° East 510 587 25,000  Level Moncton Center
Mon 11:45:13 PM 43.8833 -66.8833 58° Northeast 510 587 25,000  Level Moncton Center
Mon 11:46:13 PM 43.9500 -66.7000 63° Northeast 510 587 25,000  Level Moncton Center
Mon 11:47:13 PM 44.0167 -66.5333 61° Northeast 490 564 25,000 -50 Level Moncton Center
Mon 11:48:13 PM 44.0667 -66.3667 67° East 460 529 24,900 -600 Descending Moncton Center
Mon 11:49:13 PM 44.1167 -66.2167 65° Northeast 440 506 23,800 -1,100 Descending Moncton Center
Mon 11:50:13 PM 44.1667 -66.1000 59° Northeast 400 460 22,700 -1,050 Descending Moncton Center
Mon 11:51:13 PM 44.2333 -65.9667 55° Northeast 360 414 21,700 -950 Descending Moncton Center
Mon 11:52:13 PM 44.2667 -65.8500 68° East 360 414 20,800 -1,300 Descending Moncton Center
Mon 11:53:13 PM 44.3167 -65.7000 65° Northeast 380 437 19,100 -1,350 Descending Moncton Center
Mon 11:54:13 PM 44.3667 -65.5667 62° Northeast 390 449 18,100 -750 Descending Moncton Center
Mon 11:55:13 PM 44.4000 -65.4333 71° East 380 437 17,600 -250 Descending Moncton Center
Mon 11:56:13 PM 44.4500 -65.3167 59° Northeast 380 437 17,600 -800 Level Moncton Center
Mon 11:57:13 PM 44.5000 -65.1667 65° Northeast 370 426 16,000 -1,900 Descending Moncton Center
Mon 11:58:13 PM 44.5333 -65.0500 68° East 350 403 13,800 -1,950 Descending Moncton Center
Mon 11:59:13 PM 44.5833 -64.9333 59° Northeast 330 380 12,100 -1,350 Descending Moncton Center
Tue 12:00:13 AM 44.6167 -64.8167 68° East 330 380 11,100 -950 Descending Moncton Center
Tue 12:01:13 AM 44.6500 -64.7000 68° East 320 368 10,200 -450 Descending Moncton Center
Tue 12:02:13 AM 44.6833 -64.6167 61° Northeast 290 334 10,200 -500 Level Moncton Center
Tue 12:03:13 AM 44.7333 -64.4833 62° Northeast 290 334 9,200 -1,050 Descending Moncton Center
Tue 12:04:13 AM 44.7500 -64.4167 71° East 280 322 8,100 -1,050 Descending Moncton Center
Tue 12:05:13 AM 44.7833 -64.3333 61° Northeast 260 299 7,100 -1,000 Descending Moncton Center
Tue 12:06:13 AM 44.8167 -64.2333 65° Northeast 250 288 6,100 -1,100 Descending Moncton Center
Tue 12:07:13 AM 44.8500 -64.1333 65° Northeast 250 288 4,900 -1,300 Descending Moncton Center
Tue 12:08:13 AM 44.8833 -64.0667 55° Northeast 240 276 3,500 -1,200 Descending Moncton Center
Tue 12:09:13 AM 44.9167 -64.0000 55° Northeast 220 253 2,500 -600 Descending Moncton Center
Tue 12:10:13 AM 44.9167 -63.9167 90° East 190 219 2,300 -100 Descending Moncton Center
Tue 12:11:13 AM 44.9333 -63.8500 71° East 190 219 2,300  Level Moncton Center
Tue 12:12:13 AM 44.9500 -63.7667 74° East 210 242 2,300  Level Moncton Center
Tue 12:13:13 AM 44.9500 -63.6833 90° East 200 230 2,300 100 Level Moncton Center
Tue 12:14:13 AM 44.9333 -63.6167 109° East 190 219 2,500 -300 Climbing Moncton Center
Tue 12:15:13 AM 44.9167 -63.5667 115° Southeast 150 173 1,700 -700 Descending Moncton Center
Tue 12:16:13 AM 44.9000 -63.5500 145° Southeast 110 127 1,100 -600 Descending Moncton Center
Tue 12:17:13 AM 44.8667 -63.5000 133° Southeast 110 127 500 -300 Descending Moncton Center
Tue 12:18:13 AM 44.8667 -63.4833 90° East 110 127 500  Level Moncton Center

Login

Don't have an account? Register now (free) for customized features, flight alerts, and more!